createdAt,value
2023-05-10T00:00:11.323Z,15.40
2023-05-10T00:02:44.175Z,15.40
2023-05-10T00:05:12.362Z,15.40
2023-05-10T00:07:40.445Z,15.30
2023-05-10T00:10:09.313Z,15.30
2023-05-10T00:12:39.992Z,15.30
2023-05-10T00:15:11.332Z,15.30
2023-05-10T00:17:43.281Z,15.30
2023-05-10T00:20:14.454Z,15.20
2023-05-10T00:22:42.760Z,15.30
2023-05-10T00:25:13.200Z,15.20
2023-05-10T00:27:41.364Z,15.30
2023-05-10T00:30:10.504Z,15.30
2023-05-10T00:32:41.006Z,15.30
2023-05-10T00:35:13.043Z,15.30
2023-05-10T00:37:43.887Z,15.30
2023-05-10T00:40:12.960Z,15.30
2023-05-10T00:42:42.179Z,15.30
2023-05-10T00:45:12.919Z,15.20
2023-05-10T00:47:42.128Z,15.20
2023-05-10T00:50:12.527Z,15.30
2023-05-10T00:52:40.966Z,15.30
2023-05-10T00:55:11.236Z,15.20
2023-05-10T00:57:41.808Z,15.30
2023-05-10T01:00:11.266Z,15.20
2023-05-10T01:02:39.481Z,15.20
2023-05-10T01:05:10.111Z,15.10
2023-05-10T01:07:39.597Z,15.10
2023-05-10T01:10:08.988Z,15.10
2023-05-10T01:12:42.380Z,15.10
2023-05-10T01:15:12.681Z,15.10
2023-05-10T01:17:44.587Z,15.00
2023-05-10T01:20:13.955Z,15.10
2023-05-10T01:23:23.238Z,15.00
2023-05-10T01:26:13.964Z,15.00
2023-05-10T01:29:05.717Z,15.00
2023-05-10T01:32:03.169Z,14.90
2023-05-10T01:34:37.757Z,14.90
2023-05-10T01:37:12.943Z,14.90
2023-05-10T01:39:47.748Z,14.80
2023-05-10T01:42:19.618Z,14.80
2023-05-10T01:44:56.614Z,14.80
2023-05-10T01:47:33.011Z,14.70
2023-05-10T01:50:07.084Z,14.70
2023-05-10T01:52:40.647Z,14.70
2023-05-10T01:55:15.405Z,14.60
2023-05-10T01:57:46.150Z,14.60
2023-05-10T02:00:17.329Z,14.50
2023-05-10T02:02:48.660Z,14.40
2023-05-10T02:05:19.440Z,14.40
2023-05-10T02:07:48.268Z,14.40
2023-05-10T02:10:17.907Z,14.40
2023-05-10T02:12:50.525Z,14.30
2023-05-10T02:15:28.633Z,14.20
2023-05-10T02:17:58.742Z,14.30
2023-05-10T02:20:33.393Z,14.20
2023-05-10T02:23:02.992Z,14.20
2023-05-10T02:25:33.677Z,14.20
2023-05-10T02:28:06.657Z,14.20
2023-05-10T02:30:36.832Z,14.20
2023-05-10T02:33:07.042Z,14.10
2023-05-10T02:35:37.293Z,14.10
2023-05-10T02:38:06.463Z,14.10
2023-05-10T02:40:35.332Z,14.10
2023-05-10T02:43:04.660Z,14.10
2023-05-10T02:45:39.875Z,14.00
2023-05-10T02:48:11.615Z,14.10
2023-05-10T02:50:45.885Z,14.00
2023-05-10T02:53:20.518Z,14.00
2023-05-10T02:55:52.781Z,14.00
2023-05-10T02:58:21.844Z,14.00
2023-05-10T03:00:52.325Z,14.00
2023-05-10T03:03:22.037Z,13.90
2023-05-10T03:05:54.770Z,13.90
2023-05-10T03:08:23.066Z,13.90
2023-05-10T03:11:03.827Z,13.90
2023-05-10T03:13:38.520Z,13.90
2023-05-10T03:16:14.311Z,13.90
2023-05-10T03:18:46.723Z,13.90
2023-05-10T03:21:20.578Z,13.90
2023-05-10T03:23:59.760Z,13.80
2023-05-10T03:26:31.074Z,13.80
2023-05-10T03:29:12.033Z,13.80
2023-05-10T03:31:40.731Z,13.80
2023-05-10T03:34:11.470Z,13.80
2023-05-10T03:36:43.066Z,13.80
2023-05-10T03:39:11.479Z,13.80
2023-05-10T03:41:39.717Z,13.80
2023-05-10T03:44:07.966Z,13.80
2023-05-10T03:46:38.348Z,13.80
2023-05-10T03:49:06.513Z,13.70
2023-05-10T03:51:34.671Z,13.70
2023-05-10T03:54:07.229Z,13.70
2023-05-10T03:56:35.390Z,13.70
2023-05-10T03:59:08.289Z,13.70
2023-05-10T04:01:38.811Z,13.70
2023-05-10T04:04:11.055Z,13.70
2023-05-10T04:06:40.493Z,13.60
2023-05-10T04:09:10.149Z,13.60
2023-05-10T04:11:38.260Z,13.60
2023-05-10T04:14:06.399Z,13.60
2023-05-10T04:16:34.592Z,13.60
2023-05-10T04:19:03.665Z,13.50
2023-05-10T04:21:31.846Z,13.50
2023-05-10T04:24:01.167Z,13.60
2023-05-10T04:26:32.950Z,13.50
2023-05-10T04:29:01.259Z,13.50
2023-05-10T04:31:29.403Z,13.50
2023-05-10T04:33:59.909Z,13.50
2023-05-10T04:36:30.272Z,13.50
2023-05-10T04:38:58.386Z,13.50
2023-05-10T04:41:26.910Z,13.50
2023-05-10T04:43:56.542Z,13.50
2023-05-10T04:46:24.826Z,13.50
2023-05-10T04:48:53.004Z,13.60
2023-05-10T04:51:21.479Z,13.50
2023-05-10T04:54:01.656Z,13.50
2023-05-10T04:56:35.822Z,13.50
2023-05-10T04:59:05.332Z,13.50
2023-05-10T05:01:33.551Z,13.60
2023-05-10T05:04:02.429Z,13.50
2023-05-10T05:06:32.911Z,13.60
2023-05-10T05:09:03.671Z,13.50
2023-05-10T05:11:34.143Z,13.60
2023-05-10T05:14:02.326Z,13.50
2023-05-10T05:16:33.066Z,13.60
2023-05-10T05:19:02.608Z,13.60
2023-05-10T05:21:33.681Z,13.60
2023-05-10T05:24:01.968Z,13.60
2023-05-10T05:26:30.112Z,13.60
2023-05-10T05:28:58.257Z,13.60
2023-05-10T05:31:26.459Z,13.60
2023-05-10T05:33:59.117Z,13.70
2023-05-10T05:36:27.206Z,13.70
2023-05-10T05:38:56.054Z,13.70
2023-05-10T05:41:26.991Z,13.70
2023-05-10T05:43:57.644Z,13.70
2023-05-10T05:46:25.830Z,13.70
2023-05-10T05:48:54.008Z,13.70
2023-05-10T05:51:23.497Z,13.70
2023-05-10T05:53:51.702Z,13.70
2023-05-10T05:56:25.403Z,13.70
2023-05-10T05:58:53.909Z,13.70
2023-05-10T06:01:22.478Z,13.80
2023-05-10T06:03:53.411Z,13.80
2023-05-10T06:06:25.630Z,13.80
2023-05-10T06:08:53.771Z,13.80
2023-05-10T06:11:22.086Z,13.90
2023-05-10T06:13:50.273Z,13.90
2023-05-10T06:16:18.805Z,14.00
2023-05-10T06:18:49.177Z,14.00
2023-05-10T06:21:19.660Z,14.00
2023-05-10T06:23:49.149Z,14.10
2023-05-10T06:26:17.319Z,14.10
2023-05-10T06:28:45.422Z,14.10
2023-05-10T06:31:16.187Z,14.10
2023-05-10T06:33:44.381Z,14.20
2023-05-10T06:36:12.517Z,14.20
2023-05-10T06:38:40.627Z,14.20
2023-05-10T06:41:10.206Z,14.20
2023-05-10T06:43:40.901Z,14.20
2023-05-10T06:46:09.272Z,14.30
2023-05-10T06:48:37.363Z,14.30
2023-05-10T06:51:08.250Z,14.30
2023-05-10T06:53:36.441Z,14.30
2023-05-10T06:56:04.903Z,14.30
2023-05-10T06:58:36.944Z,14.30
2023-05-10T07:01:06.121Z,14.30
2023-05-10T07:03:34.613Z,14.30
2023-05-10T07:06:04.794Z,14.30
2023-05-10T07:08:35.677Z,14.40
2023-05-10T07:11:05.080Z,14.40
2023-05-10T07:13:33.809Z,14.40
2023-05-10T07:16:04.032Z,14.40
2023-05-10T07:18:32.304Z,14.40
2023-05-10T07:21:00.576Z,14.40
2023-05-10T07:23:28.666Z,14.50
2023-05-10T07:25:58.332Z,14.50
2023-05-10T07:28:26.712Z,14.50
2023-05-10T07:30:54.868Z,14.50
2023-05-10T07:33:26.640Z,14.50
2023-05-10T07:35:54.775Z,14.50
2023-05-10T07:38:25.428Z,14.60
2023-05-10T07:40:53.652Z,14.60
2023-05-10T07:43:21.885Z,14.60
2023-05-10T07:45:50.111Z,14.60
2023-05-10T07:48:21.324Z,14.70
2023-05-10T07:50:50.847Z,14.60
2023-05-10T07:53:21.730Z,14.70
2023-05-10T07:55:52.710Z,14.70
2023-05-10T07:58:20.862Z,14.70
2023-05-10T08:00:50.178Z,14.70
2023-05-10T08:03:18.532Z,14.70
2023-05-10T08:05:46.813Z,14.80
2023-05-10T08:08:18.996Z,14.80
2023-05-10T08:10:49.510Z,14.80
2023-05-10T08:13:17.629Z,14.80
2023-05-10T08:15:45.757Z,14.80
2023-05-10T08:18:16.936Z,14.90
2023-05-10T08:20:45.145Z,14.90
2023-05-10T08:23:14.756Z,14.90
2023-05-10T08:25:44.285Z,14.90
2023-05-10T08:28:12.408Z,14.90
2023-05-10T08:30:42.830Z,15.00
2023-05-10T08:33:11.148Z,15.00
2023-05-10T08:35:39.393Z,15.00
2023-05-10T08:38:07.521Z,15.00
2023-05-10T08:40:37.094Z,15.00
2023-05-10T08:43:08.039Z,15.00
2023-05-10T08:45:39.598Z,15.00
2023-05-10T08:48:11.339Z,15.00
2023-05-10T08:50:41.455Z,15.10
2023-05-10T08:53:12.885Z,15.10
2023-05-10T08:55:43.867Z,15.20
2023-05-10T08:58:16.377Z,15.20
2023-05-10T09:00:45.048Z,15.20
2023-05-10T09:03:16.640Z,15.30
2023-05-10T09:05:47.310Z,15.30
2023-05-10T09:08:19.192Z,15.30
2023-05-10T09:10:48.393Z,15.40
2023-05-10T09:13:19.099Z,15.40
2023-05-10T09:15:48.010Z,15.40
2023-05-10T09:18:16.495Z,15.40
2023-05-10T09:20:44.805Z,15.40
2023-05-10T09:23:12.923Z,15.40
2023-05-10T09:25:43.112Z,15.40
2023-05-10T09:28:11.872Z,15.40
2023-05-10T09:30:44.018Z,15.40
2023-05-10T09:33:12.159Z,15.40
2023-05-10T09:35:43.461Z,15.50
2023-05-10T09:38:11.757Z,15.50
2023-05-10T09:40:40.064Z,15.50
2023-05-10T09:43:11.851Z,15.60
2023-05-10T09:45:40.020Z,15.60
2023-05-10T09:48:11.958Z,15.70
2023-05-10T09:50:40.149Z,15.70
2023-05-10T09:53:09.894Z,15.70
2023-05-10T09:55:42.300Z,15.70
2023-05-10T09:58:13.310Z,15.70
2023-05-10T10:00:45.035Z,15.70
2023-05-10T10:03:18.526Z,15.70
2023-05-10T10:05:50.131Z,15.70
2023-05-10T10:08:18.689Z,15.80
2023-05-10T10:10:52.160Z,15.80
2023-05-10T10:13:22.821Z,15.80
2023-05-10T10:15:56.379Z,15.90
2023-05-10T10:18:28.114Z,15.90
2023-05-10T10:20:59.113Z,15.90
2023-05-10T10:23:27.941Z,16.00
2023-05-10T10:25:57.605Z,16.10
2023-05-10T10:28:34.485Z,16.10
2023-05-10T10:31:19.583Z,16.20
2023-05-10T10:34:01.402Z,16.30
2023-05-10T10:36:32.273Z,16.30
2023-05-10T10:39:01.714Z,16.50
2023-05-10T10:41:34.722Z,16.50
2023-05-10T10:44:37.604Z,16.60
2023-05-10T10:47:30.700Z,16.70
2023-05-10T10:50:08.180Z,16.80
2023-05-10T10:52:39.236Z,16.90
2023-05-10T10:55:11.157Z,17.00
2023-05-10T10:57:51.034Z,17.10
2023-05-10T11:00:27.593Z,17.20
2023-05-10T11:03:05.329Z,17.30
2023-05-10T11:05:41.291Z,17.40
2023-05-10T11:08:12.568Z,17.50
2023-05-10T11:10:41.536Z,17.50
2023-05-10T11:13:12.785Z,17.60
2023-05-10T11:15:42.128Z,17.70
2023-05-10T11:18:21.427Z,17.80
2023-05-10T11:20:55.074Z,17.90
2023-05-10T11:23:23.710Z,18.00
2023-05-10T11:25:54.998Z,18.10
2023-05-10T11:28:25.551Z,18.20
2023-05-10T11:30:57.165Z,18.20
2023-05-10T11:33:25.395Z,18.20
2023-05-10T11:35:54.922Z,18.30
2023-05-10T11:38:25.370Z,18.30
2023-05-10T11:40:55.000Z,18.40
2023-05-10T11:43:29.173Z,18.50
2023-05-10T11:45:57.463Z,18.50
2023-05-10T11:48:29.116Z,18.50
2023-05-10T11:51:03.054Z,18.50
2023-05-10T11:53:34.769Z,18.60
2023-05-10T11:56:06.516Z,18.50
2023-05-10T11:58:35.379Z,18.60
2023-05-10T12:01:07.264Z,18.60
2023-05-10T12:03:36.243Z,18.70
2023-05-10T12:06:09.741Z,18.70
2023-05-10T12:08:38.302Z,18.80
2023-05-10T12:11:08.789Z,18.90
2023-05-10T12:13:41.314Z,18.80
2023-05-10T12:16:16.684Z,18.80
2023-05-10T12:18:47.735Z,18.80
2023-05-10T12:21:21.341Z,18.90
2023-05-10T12:23:50.516Z,19.00
2023-05-10T12:26:18.899Z,19.10
2023-05-10T12:28:49.609Z,19.10
2023-05-10T12:31:18.039Z,19.10
2023-05-10T12:33:48.294Z,19.20
2023-05-10T12:36:18.990Z,19.20
2023-05-10T12:38:52.068Z,19.30
2023-05-10T12:41:22.331Z,19.40
2023-05-10T12:43:50.524Z,19.60
2023-05-10T12:46:19.599Z,19.80
2023-05-10T12:48:57.557Z,19.90
2023-05-10T12:51:31.735Z,20.00
2023-05-10T12:54:04.371Z,20.10
2023-05-10T12:56:32.691Z,20.10
2023-05-10T12:59:00.970Z,20.10
2023-05-10T13:01:29.240Z,20.10
2023-05-10T13:03:57.679Z,20.10
2023-05-10T13:06:25.947Z,20.10
2023-05-10T13:08:56.461Z,20.10
2023-05-10T13:11:28.555Z,20.10
2023-05-10T13:13:56.952Z,20.00
2023-05-10T13:16:25.172Z,20.00
2023-05-10T13:18:53.571Z,20.00
2023-05-10T13:21:27.356Z,20.00
2023-05-10T13:23:57.009Z,19.90
2023-05-10T13:26:37.639Z,19.90
2023-05-10T13:29:13.810Z,19.90
2023-05-10T13:31:49.043Z,19.90
2023-05-10T13:34:21.974Z,20.00
2023-05-10T13:37:03.590Z,20.00
2023-05-10T13:39:35.868Z,20.10
2023-05-10T13:42:08.742Z,20.10
2023-05-10T13:44:37.101Z,20.00
2023-05-10T13:47:07.752Z,20.10
2023-05-10T13:49:35.961Z,20.00
2023-05-10T13:52:07.712Z,20.00
2023-05-10T13:54:39.285Z,20.00
2023-05-10T13:57:08.954Z,19.90
2023-05-10T13:59:39.431Z,20.00
2023-05-10T14:02:08.208Z,20.10
2023-05-10T14:04:38.743Z,20.10
2023-05-10T14:07:07.021Z,20.00
2023-05-10T14:09:35.214Z,19.90
2023-05-10T14:12:06.123Z,19.80
2023-05-10T14:14:35.666Z,19.80
2023-05-10T14:17:03.824Z,19.80
2023-05-10T14:19:33.582Z,19.70
2023-05-10T14:22:01.875Z,19.70
2023-05-10T14:24:32.690Z,19.70
2023-05-10T14:27:03.270Z,19.70
2023-05-10T14:29:35.089Z,19.80
2023-05-10T14:32:03.980Z,19.90
2023-05-10T14:34:32.177Z,20.00
2023-05-10T14:37:02.692Z,20.10
2023-05-10T14:39:34.161Z,20.10
2023-05-10T14:42:03.566Z,20.00
2023-05-10T14:44:31.722Z,20.00
2023-05-10T14:47:03.445Z,20.00
2023-05-10T14:49:33.590Z,19.90
2023-05-10T14:52:01.732Z,19.80
2023-05-10T14:54:34.373Z,19.80
2023-05-10T14:57:05.023Z,19.70
2023-05-10T14:59:33.241Z,19.70
2023-05-10T15:02:04.135Z,19.50
2023-05-10T15:04:35.153Z,19.40
2023-05-10T15:07:04.171Z,19.40
2023-05-10T15:09:32.376Z,19.30
2023-05-10T15:12:00.585Z,19.30
2023-05-10T15:14:28.853Z,19.20
2023-05-10T15:16:57.026Z,19.10
2023-05-10T15:19:29.745Z,19.00
2023-05-10T15:21:58.080Z,19.00
2023-05-10T15:24:26.293Z,19.00
2023-05-10T15:26:56.988Z,19.00
2023-05-10T15:29:25.180Z,19.00
2023-05-10T15:31:55.474Z,18.90
2023-05-10T15:34:23.701Z,18.90
2023-05-10T15:36:55.561Z,18.80
2023-05-10T15:39:26.057Z,18.80
2023-05-10T15:41:54.192Z,18.80
2023-05-10T15:44:23.286Z,18.90
2023-05-10T15:46:53.937Z,18.90
2023-05-10T15:49:22.052Z,18.90
2023-05-10T15:51:52.474Z,19.00
2023-05-10T15:54:25.087Z,19.10
2023-05-10T15:56:54.922Z,19.20
2023-05-10T15:59:25.622Z,19.20
2023-05-10T16:01:56.148Z,19.20
2023-05-10T16:04:27.185Z,19.30
2023-05-10T16:06:55.364Z,19.40
2023-05-10T16:09:24.852Z,19.40
2023-05-10T16:11:53.024Z,19.40
2023-05-10T16:14:22.077Z,19.40
2023-05-10T16:16:50.256Z,19.50
2023-05-10T16:19:21.126Z,19.50
2023-05-10T16:21:49.377Z,19.40
2023-05-10T16:24:19.815Z,19.40
2023-05-10T16:26:49.327Z,19.30
2023-05-10T16:29:17.519Z,19.20
2023-05-10T16:31:46.347Z,19.20
2023-05-10T16:34:14.490Z,19.20
2023-05-10T16:36:42.874Z,19.20
2023-05-10T16:39:11.267Z,19.20
2023-05-10T16:41:41.561Z,19.20
2023-05-10T16:44:15.311Z,19.20
2023-05-10T16:46:46.125Z,19.20
2023-05-10T16:49:21.442Z,19.20
2023-05-10T16:51:55.694Z,19.20
2023-05-10T16:54:32.280Z,19.20
2023-05-10T16:57:04.917Z,19.10
2023-05-10T16:59:36.960Z,19.10
2023-05-10T17:02:06.750Z,19.00
2023-05-10T17:04:41.556Z,18.90
2023-05-10T17:07:12.268Z,18.90
2023-05-10T17:09:46.117Z,18.80
2023-05-10T17:12:16.470Z,18.80
2023-05-10T17:14:47.825Z,18.80
2023-05-10T17:17:17.764Z,18.70
2023-05-10T17:19:49.189Z,18.70
2023-05-10T17:22:19.153Z,18.70
2023-05-10T17:24:54.322Z,18.60
2023-05-10T17:27:33.352Z,18.60
2023-05-10T17:30:18.723Z,18.60
2023-05-10T17:32:59.535Z,18.60
2023-05-10T17:35:51.159Z,18.50
2023-05-10T17:38:34.871Z,18.40
2023-05-10T17:41:22.550Z,18.30
2023-05-10T17:43:57.522Z,18.20
2023-05-10T17:46:46.764Z,18.20
2023-05-10T17:49:17.585Z,18.20
2023-05-10T17:51:48.395Z,18.10
2023-05-10T17:54:16.672Z,18.10
2023-05-10T17:56:44.922Z,18.00
2023-05-10T17:59:15.337Z,18.00
2023-05-10T18:01:44.918Z,18.00
2023-05-10T18:04:13.120Z,18.00
2023-05-10T18:06:41.715Z,17.90
2023-05-10T18:09:09.915Z,17.90
2023-05-10T18:11:39.365Z,17.80
2023-05-10T18:14:07.486Z,17.80
2023-05-10T18:16:38.106Z,17.70
2023-05-10T18:19:07.748Z,17.70
2023-05-10T18:21:35.954Z,17.60
2023-05-10T18:24:06.641Z,17.60
2023-05-10T18:26:34.867Z,17.50
2023-05-10T18:29:03.099Z,17.40
2023-05-10T18:31:31.291Z,17.40
2023-05-10T18:34:01.942Z,17.30
2023-05-10T18:36:32.325Z,17.30
2023-05-10T18:39:06.724Z,17.30
2023-05-10T18:41:34.883Z,17.20
2023-05-10T18:44:03.095Z,17.20
2023-05-10T18:46:31.401Z,17.10
2023-05-10T18:48:59.616Z,17.10
2023-05-10T18:51:34.821Z,17.10
2023-05-10T18:54:03.046Z,17.00
2023-05-10T18:56:31.452Z,17.00
2023-05-10T18:58:59.574Z,17.00
2023-05-10T19:01:27.774Z,17.00
2023-05-10T19:03:56.078Z,17.00
2023-05-10T19:06:26.524Z,17.00
2023-05-10T19:08:56.067Z,16.90
2023-05-10T19:11:24.310Z,16.90
2023-05-10T19:13:52.517Z,16.90
2023-05-10T19:16:23.319Z,16.90
2023-05-10T19:18:56.585Z,16.80
2023-05-10T19:21:24.842Z,16.80
2023-05-10T19:23:57.754Z,16.80
2023-05-10T19:26:25.949Z,16.80
2023-05-10T19:28:57.605Z,16.80
2023-05-10T19:31:25.818Z,16.80
2023-05-10T19:33:54.055Z,16.70
2023-05-10T19:36:24.552Z,16.70
2023-05-10T19:38:57.116Z,16.70
2023-05-10T19:41:25.713Z,16.60
2023-05-10T19:43:56.369Z,16.60
2023-05-10T19:46:24.604Z,16.50
2023-05-10T19:48:53.128Z,16.50
2023-05-10T19:51:21.293Z,16.40
2023-05-10T19:53:49.499Z,16.40
2023-05-10T19:56:19.521Z,16.40
2023-05-10T19:58:48.228Z,16.40
2023-05-10T20:01:18.957Z,16.40
2023-05-10T20:03:47.260Z,16.40
2023-05-10T20:06:15.462Z,16.30
2023-05-10T20:08:43.612Z,16.30
2023-05-10T20:11:12.113Z,16.30
2023-05-10T20:13:41.572Z,16.30
2023-05-10T20:16:09.859Z,16.20
2023-05-10T20:18:38.577Z,16.20
2023-05-10T20:21:06.941Z,16.10
2023-05-10T20:23:35.101Z,16.10
2023-05-10T20:26:03.643Z,16.10
2023-05-10T20:28:31.846Z,16.00
2023-05-10T20:31:02.036Z,16.00
2023-05-10T20:33:30.472Z,15.90
2023-05-10T20:36:00.643Z,15.90
2023-05-10T20:38:28.817Z,15.90
2023-05-10T20:40:57.335Z,15.80
2023-05-10T20:43:25.636Z,15.80
2023-05-10T20:45:54.170Z,15.80
2023-05-10T20:48:25.948Z,15.70
2023-05-10T20:50:54.082Z,15.70
2023-05-10T20:53:22.299Z,15.70
2023-05-10T20:55:52.858Z,15.60
2023-05-10T20:58:21.018Z,15.60
2023-05-10T21:00:49.269Z,15.60
2023-05-10T21:03:17.386Z,15.60
2023-05-10T21:05:46.934Z,15.60
2023-05-10T21:08:17.611Z,15.50
2023-05-10T21:10:48.220Z,15.60
2023-05-10T21:13:16.658Z,15.50
2023-05-10T21:15:47.432Z,15.50
2023-05-10T21:18:15.626Z,15.50
2023-05-10T21:20:44.271Z,15.50
2023-05-10T21:23:13.779Z,15.50
2023-05-10T21:25:41.894Z,15.50
2023-05-10T21:28:10.121Z,15.50
2023-05-10T21:30:38.531Z,15.50
2023-05-10T21:33:07.103Z,15.50
2023-05-10T21:35:35.287Z,15.50
2023-05-10T21:38:06.212Z,15.50
2023-05-10T21:40:40.172Z,15.40
2023-05-10T21:43:08.600Z,15.50
2023-05-10T21:45:36.731Z,15.50
2023-05-10T21:48:05.938Z,15.50
2023-05-10T21:50:37.344Z,15.40
2023-05-10T21:53:05.565Z,15.40
2023-05-10T21:55:34.244Z,15.40
2023-05-10T21:58:06.704Z,15.40
2023-05-10T22:00:35.587Z,15.40
2023-05-10T22:03:03.859Z,15.40
2023-05-10T22:05:34.405Z,15.30
2023-05-10T22:08:02.599Z,15.30
2023-05-10T22:10:31.000Z,15.30
2023-05-10T22:12:59.710Z,15.20
2023-05-10T22:15:29.224Z,15.30
2023-05-10T22:17:57.476Z,15.20
2023-05-10T22:20:25.823Z,15.20
2023-05-10T22:22:56.052Z,15.30
2023-05-10T22:25:26.363Z,15.20
2023-05-10T22:27:54.554Z,15.20
2023-05-10T22:30:22.930Z,15.20
2023-05-10T22:32:54.717Z,15.20
2023-05-10T22:35:23.438Z,15.20
2023-05-10T22:37:51.624Z,15.20
2023-05-10T22:40:19.944Z,15.20
2023-05-10T22:42:48.249Z,15.20
2023-05-10T22:45:16.750Z,15.20
2023-05-10T22:47:48.290Z,15.20
2023-05-10T22:50:20.595Z,15.10
2023-05-10T22:52:51.210Z,15.10
2023-05-10T22:55:19.317Z,15.10
2023-05-10T22:57:47.449Z,15.10
2023-05-10T23:00:16.846Z,15.10
2023-05-10T23:02:47.325Z,15.10
2023-05-10T23:05:18.030Z,15.10
2023-05-10T23:07:53.214Z,15.10
2023-05-10T23:10:21.584Z,15.10
2023-05-10T23:12:49.765Z,15.10
2023-05-10T23:15:20.050Z,15.00
2023-05-10T23:17:48.239Z,15.00
2023-05-10T23:20:18.935Z,15.00
2023-05-10T23:22:56.287Z,15.00
2023-05-10T23:25:24.378Z,15.00
2023-05-10T23:27:52.456Z,15.00
2023-05-10T23:30:20.735Z,15.00
2023-05-10T23:32:48.876Z,15.00
2023-05-10T23:35:19.509Z,15.00
2023-05-10T23:37:49.864Z,15.00
2023-05-10T23:40:19.814Z,15.00
2023-05-10T23:42:48.165Z,15.00
2023-05-10T23:45:16.460Z,14.90
2023-05-10T23:47:46.721Z,14.90
2023-05-10T23:50:14.949Z,14.90
2023-05-10T23:52:43.210Z,14.90
2023-05-10T23:55:13.494Z,14.90
2023-05-10T23:57:43.713Z,14.80
